createdAt,value
2023-02-01T00:13:41.277Z,7.78
2023-02-01T00:28:47.224Z,7.84
2023-02-01T00:43:52.229Z,8.01
2023-02-01T00:58:56.796Z,7.91
2023-02-01T01:14:02.036Z,7.96
2023-02-01T01:29:06.272Z,7.99
2023-02-01T01:44:29.844Z,8.15
2023-02-01T01:59:34.240Z,7.35
2023-02-01T02:14:39.043Z,7.39
2023-02-01T02:30:01.993Z,7.40
2023-02-01T02:45:28.445Z,7.22
2023-02-01T03:00:52.711Z,7.25
2023-02-01T03:16:17.657Z,7.28
2023-02-01T03:31:22.291Z,7.03
2023-02-01T03:46:37.614Z,7.02
2023-02-01T04:01:42.179Z,6.93
2023-02-01T04:16:47.716Z,6.97
2023-02-01T04:31:52.243Z,7.03
2023-02-01T04:46:57.082Z,6.98
2023-02-01T05:02:01.584Z,7.06
2023-02-01T05:17:06.315Z,6.99
2023-02-01T05:32:21.636Z,7.10
2023-02-01T05:47:27.318Z,7.16
2023-02-01T06:02:31.638Z,7.18
2023-02-01T06:17:36.144Z,7.60
2023-02-01T06:32:41.627Z,7.57
2023-02-01T06:47:46.317Z,8.16
2023-02-01T07:02:50.678Z,8.08
2023-02-01T07:17:58.348Z,8.09
2023-02-01T07:33:03.392Z,7.99
2023-02-01T07:48:08.358Z,7.99
2023-02-01T08:03:12.805Z,8.18
2023-02-01T08:18:19.207Z,7.94
2023-02-01T08:33:24.131Z,7.86
2023-02-01T08:48:29.792Z,7.69
2023-02-01T09:03:34.523Z,7.76
2023-02-01T09:18:46.104Z,7.68
2023-02-01T09:34:01.101Z,7.71
2023-02-01T09:49:11.541Z,7.76
2023-02-01T10:04:16.144Z,8.02
2023-02-01T10:19:30.520Z,7.84
2023-02-01T10:34:35.550Z,7.82
2023-02-01T10:49:41.970Z,7.71
2023-02-01T11:04:46.130Z,7.58
2023-02-01T11:20:00.258Z,7.63
2023-02-01T11:35:05.567Z,7.73
2023-02-01T11:50:20.187Z,7.72
2023-02-01T12:05:27.605Z,7.85
2023-02-01T12:20:37.878Z,8.00
2023-02-01T12:35:45.417Z,8.06
2023-02-01T12:50:52.074Z,8.03
2023-02-01T13:06:08.643Z,8.18
2023-02-01T13:21:16.384Z,8.50
2023-02-01T13:36:24.295Z,8.56
2023-02-01T13:51:36.843Z,8.45
2023-02-01T14:06:45.126Z,8.72
2023-02-01T14:21:50.529Z,8.87
2023-02-01T14:37:00.276Z,8.47
2023-02-01T14:52:06.833Z,8.15
2023-02-01T15:07:13.182Z,8.08
2023-02-01T15:22:20.005Z,7.80
2023-02-01T15:37:24.301Z,7.32
2023-02-01T15:52:35.269Z,7.47
2023-02-01T16:07:41.548Z,7.71
2023-02-01T16:22:46.432Z,7.84
2023-02-01T16:37:50.677Z,8.05
2023-02-01T16:52:59.721Z,8.15
2023-02-01T17:08:08.555Z,8.05
2023-02-01T17:23:23.881Z,8.08
2023-02-01T17:38:28.733Z,8.12
2023-02-01T17:53:36.142Z,8.03
2023-02-01T18:08:40.855Z,7.87
2023-02-01T18:23:46.764Z,7.45
2023-02-01T18:38:51.863Z,7.42
2023-02-01T19:16:54.282Z,7.32
2023-02-01T19:32:08.801Z,7.14
2023-02-01T19:47:30.399Z,7.24
2023-02-01T20:02:58.751Z,7.30
2023-02-01T20:18:27.360Z,7.20
2023-02-01T20:33:45.017Z,7.16
2023-02-01T20:49:19.446Z,6.93
2023-02-01T21:05:04.738Z,6.82
2023-02-01T21:20:28.532Z,6.69
2023-02-01T21:35:54.730Z,6.82
2023-02-01T21:52:00.326Z,6.94
2023-02-01T22:07:54.584Z,7.05
